N911DC KHEF-KHEF
Flight info
| Callsign | N911DC |
|---|---|
| Flight time | 0h 41m |
| Altitude | 5500 |
| Route | VFR N |
| Aircraft | AS50/L-VGD/C |
Departure
| Time | 2026-04-25 13:29 |
|---|---|
| Airport | Manassas Regional Airport/Harry P. Davis Field (KHEF) |
Arrival
| Time | 2026-04-25 14:10 |
|---|---|
| Airport | Manassas Regional Airport/Harry P. Davis Field (KHEF) |
| Time | Latitude | Longitude | Altitude | Speed | Heading |
|---|---|---|---|---|---|
| 2026-04-25 13:19 | 38.72097 | -77.51051 | 195 ft | 0 kts | 237° |
| 2026-04-25 13:23 | 38.72097 | -77.51050 | 195 ft | 0 kts | 230° |
| 2026-04-25 13:23 | 38.72087 | -77.51066 | 195 ft | 1 kts | 158° |
| 2026-04-25 13:23 | 38.72087 | -77.51067 | 195 ft | 0 kts | 200° |
| 2026-04-25 13:24 | 38.72085 | -77.51070 | 195 ft | 0 kts | 202° |
| 2026-04-25 13:24 | 38.72075 | -77.51080 | 195 ft | 3 kts | 208° |
| 2026-04-25 13:24 | 38.72016 | -77.51087 | 203 ft | 15 kts | 174° |
| 2026-04-25 13:24 | 38.71915 | -77.51047 | 201 ft | 2 kts | 300° |
| 2026-04-25 13:25 | 38.71916 | -77.51048 | 196 ft | 4 kts | 264° |
| 2026-04-25 13:25 | 38.71940 | -77.51117 | 208 ft | 16 kts | 1° |
| 2026-04-25 13:25 | 38.72060 | -77.51202 | 207 ft | 27 kts | 346° |
| 2026-04-25 13:25 | 38.72227 | -77.51321 | 199 ft | 24 kts | 342° |
| 2026-04-25 13:26 | 38.72326 | -77.51393 | 197 ft | 14 kts | 339° |
| 2026-04-25 13:26 | 38.72437 | -77.51469 | 211 ft | 22 kts | 337° |
| 2026-04-25 13:26 | 38.72576 | -77.51566 | 215 ft | 24 kts | 344° |
| 2026-04-25 13:26 | 38.72706 | -77.51665 | 204 ft | 16 kts | 343° |
| 2026-04-25 13:27 | 38.72793 | -77.51736 | 196 ft | 15 kts | 320° |
| 2026-04-25 13:27 | 38.72810 | -77.51793 | 201 ft | 1 kts | 177° |
| 2026-04-25 13:27 | 38.72807 | -77.51793 | 195 ft | 0 kts | 241° |
| 2026-04-25 13:28 | 38.72803 | -77.51796 | 195 ft | 0 kts | 211° |
| 2026-04-25 13:28 | 38.72759 | -77.51883 | 200 ft | 20 kts | 192° |
| 2026-04-25 13:28 | 38.72547 | -77.51770 | 385 ft | 53 kts | 141° |
| 2026-04-25 13:29 | 38.72134 | -77.51886 | 635 ft | 90 kts | 245° |
| 2026-04-25 13:29 | 38.72383 | -77.52585 | 844 ft | 93 kts | 317° |
| 2026-04-25 13:29 | 38.72947 | -77.53083 | 956 ft | 103 kts | 334° |
| 2026-04-25 13:30 | 38.74413 | -77.53674 | 951 ft | 116 kts | 359° |
| 2026-04-25 13:30 | 38.75232 | -77.53727 | 1009 ft | 118 kts | 359° |
| 2026-04-25 13:30 | 38.76078 | -77.53884 | 1357 ft | 125 kts | 349° |
| 2026-04-25 13:31 | 38.77661 | -77.54666 | 2160 ft | 128 kts | 1° |
| 2026-04-25 13:31 | 38.78568 | -77.54259 | 1778 ft | 146 kts | 36° |
| 2026-04-25 13:31 | 38.79183 | -77.53308 | 1256 ft | 132 kts | 76° |
| 2026-04-25 13:31 | 38.79365 | -77.52278 | 1202 ft | 107 kts | 86° |
| 2026-04-25 13:32 | 38.79404 | -77.51366 | 1195 ft | 100 kts | 97° |
| 2026-04-25 13:32 | 38.79297 | -77.50496 | 1170 ft | 97 kts | 108° |
| 2026-04-25 13:32 | 38.79140 | -77.49636 | 1119 ft | 102 kts | 99° |
| 2026-04-25 13:32 | 38.79115 | -77.48715 | 986 ft | 108 kts | 92° |
| 2026-04-25 13:33 | 38.79111 | -77.47735 | 834 ft | 109 kts | 90° |
| 2026-04-25 13:33 | 38.79079 | -77.46771 | 785 ft | 112 kts | 94° |
| 2026-04-25 13:33 | 38.78998 | -77.45787 | 899 ft | 114 kts | 95° |
| 2026-04-25 13:33 | 38.78974 | -77.45432 | 881 ft | 123 kts | 94° |
| 2026-04-25 13:34 | 38.78780 | -77.43566 | 734 ft | 129 kts | 97° |
| 2026-04-25 13:34 | 38.78615 | -77.42453 | 687 ft | 127 kts | 99° |
| 2026-04-25 13:34 | 38.78425 | -77.41355 | 641 ft | 122 kts | 99° |
| 2026-04-25 13:34 | 38.78294 | -77.40364 | 875 ft | 113 kts | 88° |
| 2026-04-25 13:35 | 38.78587 | -77.39384 | 854 ft | 125 kts | 54° |
| 2026-04-25 13:35 | 38.79340 | -77.38802 | 950 ft | 126 kts | 29° |
| 2026-04-25 13:35 | 38.80144 | -77.38333 | 1101 ft | 124 kts | 37° |
| 2026-04-25 13:35 | 38.80888 | -77.37799 | 1069 ft | 126 kts | 36° |
| 2026-04-25 13:36 | 38.81688 | -77.37288 | 913 ft | 132 kts | 28° |
| 2026-04-25 13:36 | 38.82237 | -77.36984 | 873 ft | 127 kts | 27° |
| 2026-04-25 13:36 | 38.83045 | -77.36664 | 943 ft | 117 kts | 17° |
| 2026-04-25 13:36 | 38.83851 | -77.36423 | 957 ft | 119 kts | 17° |
| 2026-04-25 13:37 | 38.84679 | -77.36416 | 984 ft | 121 kts | 354° |
| 2026-04-25 13:37 | 38.85514 | -77.36702 | 1068 ft | 128 kts | 345° |
| 2026-04-25 13:37 | 38.86369 | -77.37195 | 1035 ft | 135 kts | 334° |
| 2026-04-25 13:37 | 38.87200 | -77.37739 | 1069 ft | 136 kts | 339° |
| 2026-04-25 13:38 | 38.88043 | -77.38293 | 1178 ft | 133 kts | 339° |
| 2026-04-25 13:38 | 38.88904 | -77.38736 | 1213 ft | 130 kts | 344° |
| 2026-04-25 13:38 | 38.89759 | -77.39104 | 1261 ft | 133 kts | 349° |
| 2026-04-25 13:38 | 38.90637 | -77.39355 | 1335 ft | 133 kts | 355° |
| 2026-04-25 13:39 | 38.91550 | -77.39585 | 1196 ft | 135 kts | 349° |
| 2026-04-25 13:39 | 38.92409 | -77.40044 | 1148 ft | 131 kts | 339° |
| 2026-04-25 13:39 | 38.93168 | -77.40676 | 1161 ft | 132 kts | 324° |
| 2026-04-25 13:39 | 38.93777 | -77.41539 | 1157 ft | 129 kts | 313° |
| 2026-04-25 13:40 | 38.94196 | -77.42500 | 1175 ft | 122 kts | 291° |
| 2026-04-25 13:40 | 38.94352 | -77.43573 | 1138 ft | 121 kts | 276° |
| 2026-04-25 13:40 | 38.94342 | -77.44612 | 1209 ft | 110 kts | 262° |
| 2026-04-25 13:40 | 38.94282 | -77.45424 | 1416 ft | 66 kts | 324° |
| 2026-04-25 13:41 | 38.94634 | -77.45626 | 1315 ft | 68 kts | 26° |
| 2026-04-25 13:41 | 38.95011 | -77.45325 | 1191 ft | 56 kts | 87° |
| 2026-04-25 13:41 | 38.94922 | -77.45021 | 1186 ft | 31 kts | 184° |
| 2026-04-25 13:41 | 38.94764 | -77.44987 | 1159 ft | 22 kts | 221° |
| 2026-04-25 13:42 | 38.94597 | -77.45105 | 1158 ft | 29 kts | 299° |
| 2026-04-25 13:42 | 38.94591 | -77.45300 | 1049 ft | 19 kts | 348° |
| 2026-04-25 13:42 | 38.94701 | -77.45476 | 1007 ft | 31 kts | 259° |
| 2026-04-25 13:42 | 38.94743 | -77.45640 | 1009 ft | 4 kts | 7° |
| 2026-04-25 13:43 | 38.94892 | -77.45611 | 965 ft | 36 kts | 33° |
| 2026-04-25 13:43 | 38.95180 | -77.45489 | 1020 ft | 48 kts | 4° |
| 2026-04-25 13:43 | 38.95510 | -77.45436 | 1117 ft | 48 kts | 8° |
| 2026-04-25 13:43 | 38.95860 | -77.45416 | 1196 ft | 54 kts | 1° |
| 2026-04-25 13:44 | 38.96269 | -77.45376 | 1203 ft | 60 kts | 18° |
| 2026-04-25 13:44 | 38.96605 | -77.45336 | 1209 ft | 39 kts | 9° |
| 2026-04-25 13:44 | 38.96827 | -77.45326 | 1089 ft | 28 kts | 3° |
| 2026-04-25 13:44 | 38.97044 | -77.45297 | 855 ft | 36 kts | 6° |
| 2026-04-25 13:45 | 38.97249 | -77.45491 | 684 ft | 27 kts | 239° |
| 2026-04-25 13:45 | 38.97218 | -77.45703 | 420 ft | 20 kts | 159° |
| 2026-04-25 13:45 | 38.97186 | -77.45764 | 380 ft | 19 kts | 185° |
| 2026-04-25 13:45 | 38.97023 | -77.45658 | 684 ft | 35 kts | 156° |
| 2026-04-25 13:46 | 38.96701 | -77.45528 | 899 ft | 63 kts | 181° |
| 2026-04-25 13:46 | 38.96181 | -77.45456 | 977 ft | 85 kts | 179° |
| 2026-04-25 13:46 | 38.95547 | -77.45475 | 1007 ft | 98 kts | 184° |
| 2026-04-25 13:46 | 38.94901 | -77.45574 | 1245 ft | 84 kts | 189° |
| 2026-04-25 13:47 | 38.94322 | -77.45463 | 1157 ft | 87 kts | 167° |
| 2026-04-25 13:47 | 38.93770 | -77.45199 | 954 ft | 78 kts | 160° |
| 2026-04-25 13:47 | 38.93594 | -77.44675 | 836 ft | 67 kts | 77° |
| 2026-04-25 13:47 | 38.94006 | -77.44420 | 708 ft | 71 kts | 17° |
| 2026-04-25 13:48 | 38.94407 | -77.44654 | 624 ft | 76 kts | 335° |
| 2026-04-25 13:48 | 38.94799 | -77.45040 | 685 ft | 52 kts | 28° |
| 2026-04-25 13:48 | 38.94789 | -77.44817 | 763 ft | 49 kts | 186° |
| 2026-04-25 13:48 | 38.94398 | -77.44779 | 763 ft | 62 kts | 199° |
| 2026-04-25 13:49 | 38.94026 | -77.44835 | 724 ft | 35 kts | 240° |
| 2026-04-25 13:49 | 38.93936 | -77.44899 | 572 ft | 18 kts | 198° |
| 2026-04-25 13:49 | 38.93922 | -77.45063 | 680 ft | 19 kts | 7° |
| 2026-04-25 13:49 | 38.94029 | -77.45167 | 699 ft | 21 kts | 1° |
| 2026-04-25 13:50 | 38.94175 | -77.45226 | 718 ft | 26 kts | 16° |
| 2026-04-25 13:50 | 38.94394 | -77.45251 | 704 ft | 37 kts | 15° |
| 2026-04-25 13:50 | 38.94660 | -77.45238 | 759 ft | 36 kts | 16° |
| 2026-04-25 13:50 | 38.94938 | -77.45244 | 831 ft | 44 kts | 20° |
| 2026-04-25 13:51 | 38.95302 | -77.45212 | 1030 ft | 61 kts | 20° |
| 2026-04-25 13:51 | 38.95690 | -77.45002 | 1516 ft | 55 kts | 45° |
| 2026-04-25 13:51 | 38.95679 | -77.44539 | 1714 ft | 55 kts | 123° |
| 2026-04-25 13:51 | 38.95467 | -77.44169 | 1750 ft | 47 kts | 134° |
| 2026-04-25 13:52 | 38.95110 | -77.44228 | 1599 ft | 76 kts | 218° |
| 2026-04-25 13:52 | 38.95016 | -77.44856 | 1362 ft | 87 kts | 312° |
| 2026-04-25 13:52 | 38.95539 | -77.45250 | 934 ft | 91 kts | 353° |
| 2026-04-25 13:52 | 38.96188 | -77.45455 | 572 ft | 93 kts | 356° |
| 2026-04-25 13:53 | 38.96781 | -77.45496 | 472 ft | 78 kts | 11° |
| 2026-04-25 13:53 | 38.97180 | -77.45492 | 489 ft | 40 kts | 341° |
| 2026-04-25 13:53 | 38.97233 | -77.45687 | 385 ft | 17 kts | 187° |
| 2026-04-25 13:53 | 38.97156 | -77.45731 | 378 ft | 33 kts | 152° |
| 2026-04-25 13:54 | 38.96978 | -77.45632 | 597 ft | 23 kts | 141° |
| 2026-04-25 13:54 | 38.96864 | -77.45597 | 637 ft | 18 kts | 150° |
| 2026-04-25 13:54 | 38.96658 | -77.45619 | 732 ft | 56 kts | 174° |
| 2026-04-25 13:54 | 38.96164 | -77.45577 | 820 ft | 83 kts | 172° |
| 2026-04-25 13:55 | 38.95513 | -77.45573 | 786 ft | 101 kts | 181° |
| 2026-04-25 13:55 | 38.94762 | -77.45640 | 663 ft | 114 kts | 177° |
| 2026-04-25 13:55 | 38.94098 | -77.45708 | 936 ft | 69 kts | 179° |
| 2026-04-25 13:55 | 38.93756 | -77.45189 | 831 ft | 93 kts | 107° |
| 2026-04-25 13:56 | 38.93905 | -77.44361 | 724 ft | 104 kts | 56° |
| 2026-04-25 13:56 | 38.94543 | -77.43819 | 514 ft | 119 kts | 22° |
| 2026-04-25 13:56 | 38.95189 | -77.43910 | 592 ft | 97 kts | 356° |
| 2026-04-25 13:56 | 38.95672 | -77.44425 | 797 ft | 99 kts | 282° |
| 2026-04-25 13:57 | 38.96156 | -77.44756 | 915 ft | 82 kts | 36° |
| 2026-04-25 13:57 | 38.96070 | -77.44444 | 733 ft | 97 kts | 183° |
| 2026-04-25 13:57 | 38.95206 | -77.44766 | 776 ft | 98 kts | 198° |
| 2026-04-25 13:57 | 38.94556 | -77.45193 | 751 ft | 110 kts | 211° |
| 2026-04-25 13:58 | 38.94298 | -77.46128 | 640 ft | 119 kts | 283° |
| 2026-04-25 13:58 | 38.94710 | -77.46967 | 582 ft | 114 kts | 337° |
| 2026-04-25 13:58 | 38.95454 | -77.46974 | 631 ft | 104 kts | 19° |
| 2026-04-25 13:58 | 38.96116 | -77.46719 | 779 ft | 95 kts | 45° |
| 2026-04-25 13:59 | 38.96666 | -77.46679 | 867 ft | 91 kts | 316° |
| 2026-04-25 13:59 | 38.96468 | -77.47220 | 741 ft | 82 kts | 158° |
| 2026-04-25 13:59 | 38.96427 | -77.46643 | 773 ft | 77 kts | 56° |
| 2026-04-25 13:59 | 38.96831 | -77.46454 | 954 ft | 41 kts | 23° |
| 2026-04-25 14:00 | 38.97033 | -77.46536 | 738 ft | 22 kts | 24° |
| 2026-04-25 14:00 | 38.97120 | -77.46634 | 583 ft | 12 kts | 7° |
| 2026-04-25 14:00 | 38.97145 | -77.46598 | 546 ft | 17 kts | 345° |
| 2026-04-25 14:00 | 38.97169 | -77.46513 | 714 ft | 4 kts | 85° |
| 2026-04-25 14:01 | 38.97113 | -77.46446 | 784 ft | 21 kts | 153° |
| 2026-04-25 14:01 | 38.96831 | -77.46572 | 866 ft | 51 kts | 193° |
| 2026-04-25 14:01 | 38.96418 | -77.46727 | 789 ft | 74 kts | 193° |
| 2026-04-25 14:01 | 38.95903 | -77.46692 | 791 ft | 79 kts | 165° |
| 2026-04-25 14:02 | 38.95505 | -77.46791 | 978 ft | 47 kts | 197° |
| 2026-04-25 14:02 | 38.95162 | -77.46929 | 1122 ft | 49 kts | 158° |
| 2026-04-25 14:02 | 38.94881 | -77.46781 | 1231 ft | 43 kts | 113° |
| 2026-04-25 14:02 | 38.94809 | -77.46675 | 1278 ft | 59 kts | 121° |
| 2026-04-25 14:03 | 38.94222 | -77.45786 | 1280 ft | 100 kts | 114° |
| 2026-04-25 14:03 | 38.93753 | -77.45037 | 1191 ft | 112 kts | 123° |
| 2026-04-25 14:03 | 38.93239 | -77.44269 | 1111 ft | 121 kts | 145° |
| 2026-04-25 14:03 | 38.92359 | -77.44233 | 982 ft | 127 kts | 180° |
| 2026-04-25 14:04 | 38.91465 | -77.44386 | 814 ft | 133 kts | 183° |
| 2026-04-25 14:04 | 38.90566 | -77.44579 | 746 ft | 128 kts | 186° |
| 2026-04-25 14:04 | 38.89707 | -77.44647 | 691 ft | 124 kts | 175° |
| 2026-04-25 14:04 | 38.88846 | -77.44582 | 650 ft | 124 kts | 174° |
| 2026-04-25 14:05 | 38.87979 | -77.44513 | 617 ft | 127 kts | 170° |
| 2026-04-25 14:05 | 38.87087 | -77.44366 | 510 ft | 128 kts | 169° |
| 2026-04-25 14:05 | 38.86229 | -77.44255 | 569 ft | 120 kts | 171° |
| 2026-04-25 14:05 | 38.85462 | -77.44132 | 698 ft | 111 kts | 165° |
| 2026-04-25 14:06 | 38.84660 | -77.44023 | 638 ft | 123 kts | 179° |
| 2026-04-25 14:06 | 38.83839 | -77.44144 | 778 ft | 120 kts | 186° |
| 2026-04-25 14:06 | 38.83014 | -77.44472 | 857 ft | 123 kts | 194° |
| 2026-04-25 14:06 | 38.82189 | -77.44893 | 685 ft | 130 kts | 195° |
| 2026-04-25 14:07 | 38.81369 | -77.45387 | 675 ft | 108 kts | 199° |
| 2026-04-25 14:07 | 38.80675 | -77.45840 | 854 ft | 118 kts | 202° |
| 2026-04-25 14:07 | 38.79935 | -77.46424 | 1029 ft | 126 kts | 212° |
| 2026-04-25 14:07 | 38.79228 | -77.47085 | 1235 ft | 124 kts | 216° |
| 2026-04-25 14:08 | 38.78476 | -77.47755 | 1119 ft | 136 kts | 210° |
| 2026-04-25 14:08 | 38.77637 | -77.48375 | 938 ft | 144 kts | 205° |
| 2026-04-25 14:08 | 38.76764 | -77.48964 | 826 ft | 135 kts | 205° |
| 2026-04-25 14:08 | 38.75937 | -77.49454 | 876 ft | 129 kts | 198° |
| 2026-04-25 14:09 | 38.75122 | -77.49926 | 888 ft | 126 kts | 205° |
| 2026-04-25 14:09 | 38.74403 | -77.50385 | 970 ft | 106 kts | 201° |
| 2026-04-25 14:09 | 38.73748 | -77.50719 | 1070 ft | 97 kts | 197° |
| 2026-04-25 14:09 | 38.73536 | -77.50815 | 1079 ft | 95 kts | 195° |
| 2026-04-25 14:10 | 38.72562 | -77.51158 | 766 ft | 77 kts | 189° |
| 2026-04-25 14:10 | 38.72167 | -77.51159 | 520 ft | 32 kts | 163° |
| 2026-04-25 14:10 | 38.72063 | -77.51123 | 213 ft | 10 kts | 58° |
| 2026-04-25 14:10 | 38.72060 | -77.51074 | 219 ft | 6 kts | 81° |
| 2026-04-25 14:11 | 38.72067 | -77.51026 | 206 ft | 3 kts | 66° |
| 2026-04-25 14:11 | 38.72063 | -77.51025 | 195 ft | 0 kts | 32° |